createdAt,value
2019-06-01T00:00:10.943Z,2.20
2019-06-01T00:02:31.804Z,2.13
2019-06-01T00:05:02.097Z,1.30
2019-06-01T00:07:34.511Z,2.80
2019-06-01T00:10:06.466Z,2.30
2019-06-01T00:12:37.219Z,1.57
2019-06-01T00:15:09.793Z,2.00
2019-06-01T00:17:41.857Z,2.60
2019-06-01T00:20:13.314Z,2.27
2019-06-01T00:22:43.349Z,1.90
2019-06-01T00:25:15.008Z,3.33
2019-06-01T00:27:46.809Z,1.53
2019-06-01T00:30:27.046Z,2.00
2019-06-01T00:32:51.575Z,1.47
2019-06-01T00:35:22.873Z,3.43
2019-06-01T00:37:53.812Z,2.20
2019-06-01T00:40:24.758Z,1.63
2019-06-01T00:42:55.911Z,2.47
2019-06-01T00:45:27.058Z,2.27
2019-06-01T00:47:57.360Z,2.30
2019-06-01T00:50:27.960Z,2.67
2019-06-01T00:52:59.471Z,2.23
2019-06-01T00:55:30.008Z,1.90
2019-06-01T00:58:01.163Z,1.70
2019-06-01T01:00:43.238Z,2.83
2019-06-01T01:03:06.125Z,2.67
2019-06-01T01:05:36.449Z,2.10
2019-06-01T01:08:07.326Z,2.67
2019-06-01T01:10:38.333Z,3.23
2019-06-01T01:13:13.196Z,2.17
2019-06-01T01:15:45.213Z,2.27
2019-06-01T01:18:16.697Z,2.00
2019-06-01T01:20:48.254Z,1.60
2019-06-01T01:23:19.078Z,2.27
2019-06-01T01:25:50.418Z,2.40
2019-06-01T01:28:23.853Z,3.23
2019-06-01T01:31:08.334Z,2.10
2019-06-01T01:33:26.824Z,2.20
2019-06-01T01:35:57.842Z,2.30
2019-06-01T01:38:28.734Z,2.77
2019-06-01T01:40:59.488Z,2.27
2019-06-01T01:43:32.064Z,4.20
2019-06-01T01:46:03.631Z,2.70
2019-06-01T01:48:34.580Z,2.53
2019-06-01T01:51:06.745Z,2.10
2019-06-01T01:53:37.443Z,1.67
2019-06-01T01:56:08.214Z,2.10
2019-06-01T01:58:38.991Z,1.60
2019-06-01T02:01:22.025Z,2.37
2019-06-01T02:03:43.302Z,2.20
2019-06-01T02:06:13.890Z,2.37
2019-06-01T02:08:45.223Z,2.10
2019-06-01T02:11:16.756Z,2.30
2019-06-01T02:13:47.898Z,2.10
2019-06-01T02:16:19.648Z,2.53
2019-06-01T02:18:50.416Z,3.20
2019-06-01T02:21:21.542Z,2.33
2019-06-01T02:23:52.903Z,2.07
2019-06-01T02:26:24.044Z,2.40
2019-06-01T02:28:55.601Z,2.10
2019-06-01T02:31:41.057Z,1.80
2019-06-01T02:34:03.394Z,2.13
2019-06-01T02:36:34.785Z,2.20
2019-06-01T02:39:10.221Z,2.70
2019-06-01T02:41:40.968Z,2.67
2019-06-01T02:44:12.111Z,3.07
2019-06-01T02:46:43.264Z,2.17
2019-06-01T02:49:14.614Z,2.77
2019-06-01T02:51:45.358Z,1.70
2019-06-01T02:54:17.116Z,2.60
2019-06-01T02:56:48.698Z,3.07
2019-06-01T02:59:19.005Z,2.03
2019-06-01T03:01:57.189Z,2.23
2019-06-01T03:04:22.535Z,2.77
2019-06-01T03:06:54.875Z,2.07
2019-06-01T03:09:28.787Z,2.20
2019-06-01T03:12:02.454Z,2.17
2019-06-01T03:14:34.903Z,2.83
2019-06-01T03:17:07.920Z,1.70
2019-06-01T03:19:42.947Z,2.37
2019-06-01T03:22:16.136Z,2.70
2019-06-01T03:24:49.987Z,1.90
2019-06-01T03:27:23.354Z,2.13
2019-06-01T03:29:57.979Z,2.80
2019-06-01T03:32:36.674Z,2.00
2019-06-01T03:35:02.894Z,1.80
2019-06-01T03:37:34.904Z,2.80
2019-06-01T03:40:17.187Z,2.40
2019-06-01T03:42:41.295Z,2.10
2019-06-01T03:45:12.985Z,2.47
2019-06-01T03:47:44.423Z,2.50
2019-06-01T03:50:16.384Z,2.10
2019-06-01T03:52:47.128Z,2.03
2019-06-01T03:55:18.261Z,2.70
2019-06-01T03:57:49.569Z,1.90
2019-06-01T04:00:20.564Z,2.53
2019-06-01T04:02:51.709Z,3.37
2019-06-01T04:05:22.591Z,2.20
2019-06-01T04:07:52.983Z,2.20
2019-06-01T04:10:24.221Z,1.60
2019-06-01T04:12:54.876Z,2.30
2019-06-01T04:15:25.748Z,2.07
2019-06-01T04:17:56.093Z,2.53
2019-06-01T04:20:27.494Z,2.23
2019-06-01T04:22:58.039Z,1.93
2019-06-01T04:25:32.389Z,2.10
2019-06-01T04:28:06.242Z,2.50
2019-06-01T04:30:39.057Z,2.30
2019-06-01T04:33:11.022Z,2.53
2019-06-01T04:35:41.709Z,2.63
2019-06-01T04:38:13.411Z,2.77
2019-06-01T04:40:44.236Z,2.43
2019-06-01T04:43:15.052Z,2.77
2019-06-01T04:45:45.942Z,2.10
2019-06-01T04:48:17.290Z,2.17
2019-06-01T04:50:48.483Z,2.30
2019-06-01T04:53:18.808Z,4.33
2019-06-01T04:55:49.710Z,2.17
2019-06-01T04:58:20.864Z,2.20
2019-06-01T05:00:52.215Z,2.43
2019-06-01T05:03:23.569Z,2.87
2019-06-01T05:05:53.899Z,2.23
2019-06-01T05:08:25.666Z,2.77
2019-06-01T05:10:57.022Z,3.37
2019-06-01T05:13:28.165Z,2.43
2019-06-01T05:15:59.559Z,2.97
2019-06-01T05:18:30.898Z,2.17
2019-06-01T05:21:01.290Z,2.90
2019-06-01T05:23:32.134Z,2.20
2019-06-01T05:26:03.060Z,2.63
2019-06-01T05:28:33.871Z,2.40
2019-06-01T05:31:05.172Z,3.10
2019-06-01T05:33:37.607Z,2.40
2019-06-01T05:36:09.959Z,3.17
2019-06-01T05:38:40.874Z,2.07
2019-06-01T05:41:13.216Z,2.17
2019-06-01T05:43:44.449Z,2.60
2019-06-01T05:46:16.135Z,2.50
2019-06-01T05:48:47.075Z,2.07
2019-06-01T05:51:18.896Z,2.40
2019-06-01T05:53:50.969Z,2.30
2019-06-01T05:56:23.003Z,2.00
2019-06-01T05:58:54.354Z,2.57
2019-06-01T06:01:24.311Z,2.47
2019-06-01T06:03:56.446Z,1.93
2019-06-01T06:06:27.807Z,2.47
2019-06-01T06:08:58.961Z,2.40
2019-06-01T06:11:30.711Z,2.87
2019-06-01T06:14:01.863Z,2.20
2019-06-01T06:16:32.455Z,1.90
2019-06-01T06:19:02.399Z,2.20
2019-06-01T06:21:33.872Z,2.30
2019-06-01T06:24:05.680Z,2.30
2019-06-01T06:26:38.023Z,2.33
2019-06-01T06:29:08.305Z,1.80
2019-06-01T06:31:38.473Z,1.90
2019-06-01T06:34:08.746Z,2.63
2019-06-01T06:36:38.925Z,2.30
2019-06-01T06:39:09.590Z,2.20
2019-06-01T06:41:41.020Z,2.00
2019-06-01T06:44:11.842Z,1.60
2019-06-01T06:46:42.158Z,1.80
2019-06-01T06:49:13.932Z,1.93
2019-06-01T06:51:46.019Z,2.30
2019-06-01T06:54:17.626Z,2.23
2019-06-01T06:56:48.316Z,1.83
2019-06-01T06:59:20.279Z,2.23
2019-06-01T07:01:51.857Z,2.40
2019-06-01T07:04:23.250Z,1.80
2019-06-01T07:06:53.668Z,2.73
2019-06-01T07:09:24.674Z,1.87
2019-06-01T07:11:56.204Z,2.07
2019-06-01T07:14:27.557Z,2.17
2019-06-01T07:16:58.311Z,1.80
2019-06-01T07:19:29.462Z,2.00
2019-06-01T07:22:00.615Z,2.17
2019-06-01T07:24:32.125Z,2.40
2019-06-01T07:27:02.506Z,1.90
2019-06-01T07:29:33.403Z,2.03
2019-06-01T07:32:05.211Z,2.20
2019-06-01T07:34:41.779Z,2.27
2019-06-01T07:37:08.319Z,2.10
2019-06-01T07:39:39.672Z,3.27
2019-06-01T07:42:09.613Z,1.83
2019-06-01T07:44:40.554Z,2.37
2019-06-01T07:47:11.414Z,2.40
2019-06-01T07:49:42.360Z,2.70
2019-06-01T07:52:13.829Z,1.83
2019-06-01T07:54:44.676Z,2.77
2019-06-01T07:57:15.874Z,2.40
2019-06-01T07:59:46.462Z,2.20
2019-06-01T08:02:24.314Z,2.40
2019-06-01T08:04:54.586Z,3.07
2019-06-01T08:07:26.462Z,2.30
2019-06-01T08:09:57.386Z,2.47
2019-06-01T08:12:29.696Z,2.00
2019-06-01T08:15:00.417Z,2.67
2019-06-01T08:17:32.250Z,2.27
2019-06-01T08:20:03.113Z,1.97
2019-06-01T08:22:33.882Z,2.37
2019-06-01T08:25:05.272Z,1.63
2019-06-01T08:27:36.462Z,1.87
2019-06-01T08:30:08.570Z,2.23
2019-06-01T08:32:39.741Z,2.10
2019-06-01T08:35:10.623Z,1.80
2019-06-01T08:37:42.198Z,1.63
2019-06-01T08:40:13.829Z,2.00
2019-06-01T08:42:44.536Z,1.70
2019-06-01T08:45:15.671Z,1.77
2019-06-01T08:47:46.826Z,1.97
2019-06-01T08:50:16.781Z,1.73
2019-06-01T08:52:47.894Z,1.60
2019-06-01T08:55:18.825Z,1.83
2019-06-01T08:57:49.374Z,2.07
2019-06-01T09:00:20.712Z,1.70
2019-06-01T09:02:51.283Z,1.93
2019-06-01T09:05:24.950Z,1.63
2019-06-01T09:07:54.676Z,1.60
2019-06-01T09:10:27.244Z,2.00
2019-06-01T09:12:58.237Z,1.30
2019-06-01T09:15:29.724Z,1.40
2019-06-01T09:18:01.211Z,1.63
2019-06-01T09:20:35.822Z,1.50
2019-06-01T09:23:04.924Z,1.90
2019-06-01T09:25:36.299Z,1.80
2019-06-01T09:28:08.276Z,1.20
2019-06-01T09:30:40.034Z,1.50
2019-06-01T09:33:10.894Z,2.10
2019-06-01T09:35:54.431Z,1.43
2019-06-01T09:38:14.290Z,1.50
2019-06-01T09:40:45.675Z,2.07
2019-06-01T09:43:16.758Z,1.60
2019-06-01T09:45:47.056Z,1.53
2019-06-01T09:48:18.157Z,1.00
2019-06-01T09:50:49.408Z,1.50
2019-06-01T09:53:20.418Z,1.43
2019-06-01T09:55:51.284Z,1.40
2019-06-01T09:58:22.477Z,1.60
2019-06-01T10:00:53.498Z,2.00
2019-06-01T10:03:24.946Z,1.93
2019-06-01T10:06:01.863Z,1.40
2019-06-01T10:08:29.347Z,1.87
2019-06-01T10:11:00.648Z,1.27
2019-06-01T10:13:33.385Z,1.43
2019-06-01T10:16:05.628Z,1.27
2019-06-01T10:18:37.159Z,1.37
2019-06-01T10:21:08.532Z,1.77
2019-06-01T10:23:40.801Z,1.33
2019-06-01T10:26:12.244Z,1.40
2019-06-01T10:28:43.588Z,1.30
2019-06-01T10:31:14.718Z,1.30
2019-06-01T10:33:45.456Z,1.40
2019-06-01T10:36:20.471Z,1.20
2019-06-01T10:38:48.574Z,1.40
2019-06-01T10:41:20.221Z,1.10
2019-06-01T10:43:51.274Z,1.53
2019-06-01T10:46:22.302Z,1.40
2019-06-01T10:48:53.810Z,1.23
2019-06-01T10:51:24.759Z,1.17
2019-06-01T10:53:55.173Z,1.90
2019-06-01T10:56:26.219Z,0.93
2019-06-01T10:59:00.553Z,0.83
2019-06-01T11:01:32.408Z,1.37
2019-06-01T11:04:02.700Z,1.23
2019-06-01T11:06:40.298Z,1.10
2019-06-01T11:09:07.294Z,1.10
2019-06-01T11:11:39.067Z,1.33
2019-06-01T11:14:10.575Z,1.60
2019-06-01T11:16:43.253Z,0.93
2019-06-01T11:19:14.762Z,1.43
2019-06-01T11:21:45.641Z,1.67
2019-06-01T11:24:17.066Z,1.27
2019-06-01T11:26:48.607Z,1.33
2019-06-01T11:29:19.071Z,1.27
2019-06-01T11:31:49.986Z,1.33
2019-06-01T11:34:20.758Z,1.23
2019-06-01T11:37:04.550Z,1.70
2019-06-01T11:39:23.719Z,1.00
2019-06-01T11:41:55.099Z,0.90
2019-06-01T11:44:25.814Z,1.53
2019-06-01T11:46:57.022Z,1.10
2019-06-01T11:49:28.319Z,0.93
2019-06-01T11:51:59.075Z,1.10
2019-06-01T11:54:30.216Z,1.30
2019-06-01T11:57:01.954Z,1.23
2019-06-01T11:59:32.315Z,0.90
2019-06-01T12:02:03.059Z,0.80
2019-06-01T12:04:34.167Z,1.10
2019-06-01T12:07:17.009Z,1.07
2019-06-01T12:09:39.919Z,1.37
2019-06-01T12:12:11.743Z,1.00
2019-06-01T12:14:42.927Z,1.00
2019-06-01T12:17:13.623Z,1.20
2019-06-01T12:19:44.823Z,1.07
2019-06-01T12:22:16.131Z,0.73
2019-06-01T12:24:47.925Z,1.00
2019-06-01T12:27:18.220Z,1.00
2019-06-01T12:29:52.455Z,1.07
2019-06-01T12:32:21.976Z,1.00
2019-06-01T12:34:52.692Z,0.97
2019-06-01T12:37:39.763Z,1.03
2019-06-01T12:39:56.099Z,1.27
2019-06-01T12:42:27.163Z,1.10
2019-06-01T12:44:58.519Z,1.10
2019-06-01T12:47:29.867Z,1.00
2019-06-01T12:50:01.863Z,1.10
2019-06-01T12:52:34.665Z,1.23
2019-06-01T12:55:06.321Z,1.00
2019-06-01T12:57:37.534Z,1.10
2019-06-01T13:00:09.671Z,0.70
2019-06-01T13:02:40.662Z,0.80
2019-06-01T13:05:13.500Z,0.90
2019-06-01T13:07:56.333Z,1.13
2019-06-01T13:10:17.279Z,0.90
2019-06-01T13:12:49.413Z,0.80
2019-06-01T13:15:21.712Z,0.97
2019-06-01T13:17:51.888Z,1.37
2019-06-01T13:20:22.792Z,1.00
2019-06-01T13:22:56.386Z,1.00
2019-06-01T13:25:27.111Z,1.30
2019-06-01T13:27:58.289Z,0.90
2019-06-01T13:30:29.202Z,0.80
2019-06-01T13:33:00.784Z,1.00
2019-06-01T13:35:32.126Z,0.97
2019-06-01T13:38:11.686Z,1.10
2019-06-01T13:40:35.051Z,0.90
2019-06-01T13:43:06.807Z,0.73
2019-06-01T13:45:38.134Z,0.90
2019-06-01T13:48:09.330Z,1.27
2019-06-01T13:50:40.863Z,0.80
2019-06-01T13:53:11.821Z,0.83
2019-06-01T13:55:43.834Z,0.70
2019-06-01T13:58:14.926Z,0.80
2019-06-01T14:00:46.344Z,0.80
2019-06-01T14:03:18.082Z,1.23
2019-06-01T14:05:49.236Z,1.10
2019-06-01T14:08:28.976Z,0.80
2019-06-01T14:10:53.538Z,0.80
2019-06-01T14:13:24.280Z,0.60
2019-06-01T14:15:56.046Z,0.80
2019-06-01T14:18:26.936Z,0.90
2019-06-01T14:20:57.722Z,1.30
2019-06-01T14:23:28.271Z,0.97
2019-06-01T14:25:58.976Z,1.00
2019-06-01T14:28:29.796Z,0.70
2019-06-01T14:31:00.871Z,0.80
2019-06-01T14:33:31.781Z,0.90
2019-06-01T14:36:02.969Z,1.07
2019-06-01T14:38:46.607Z,0.97
2019-06-01T14:41:06.886Z,1.00
2019-06-01T14:43:37.847Z,1.03
2019-06-01T14:46:08.183Z,1.00
2019-06-01T14:48:39.044Z,1.60
2019-06-01T14:51:10.088Z,0.90
2019-06-01T14:53:40.584Z,1.10
2019-06-01T14:56:11.565Z,1.30
2019-06-01T14:58:43.320Z,0.80
2019-06-01T15:01:30.956Z,0.93
2019-06-01T15:03:48.068Z,1.20
2019-06-01T15:06:20.815Z,1.07
2019-06-01T15:09:13.137Z,1.13
2019-06-01T15:11:24.256Z,1.00
2019-06-01T15:13:54.882Z,0.93
2019-06-01T15:16:25.660Z,1.10
2019-06-01T15:18:56.232Z,0.70
2019-06-01T15:21:27.251Z,0.90
2019-06-01T15:23:58.899Z,1.03
2019-06-01T15:26:29.737Z,1.07
2019-06-01T15:29:01.247Z,1.10
2019-06-01T15:31:31.777Z,1.03
2019-06-01T15:34:02.079Z,1.00
2019-06-01T15:36:33.209Z,1.20
2019-06-01T15:39:04.467Z,1.00
2019-06-01T15:41:35.874Z,1.00
2019-06-01T15:44:07.069Z,1.03
2019-06-01T15:46:38.817Z,1.00
2019-06-01T15:49:09.782Z,1.17
2019-06-01T15:51:42.455Z,1.07
2019-06-01T15:54:13.901Z,0.87
2019-06-01T15:56:44.487Z,0.90
2019-06-01T15:59:15.362Z,0.83
2019-06-01T16:01:46.537Z,1.20
2019-06-01T16:04:18.292Z,1.10
2019-06-01T16:06:49.637Z,0.80
2019-06-01T16:09:21.417Z,1.10
2019-06-01T16:11:53.431Z,1.17
2019-06-01T16:14:24.590Z,0.97
2019-06-01T16:16:55.769Z,1.10
2019-06-01T16:19:27.233Z,0.83
2019-06-01T16:21:58.354Z,1.03
2019-06-01T16:24:29.057Z,0.90
2019-06-01T16:27:00.373Z,1.00
2019-06-01T16:29:31.310Z,0.93
2019-06-01T16:32:02.815Z,1.07
2019-06-01T16:34:34.732Z,1.00
2019-06-01T16:37:06.490Z,1.10
2019-06-01T16:39:38.456Z,0.80
2019-06-01T16:42:09.559Z,0.90
2019-06-01T16:44:41.175Z,1.20
2019-06-01T16:47:12.054Z,1.80
2019-06-01T16:49:43.012Z,1.13
2019-06-01T16:52:13.845Z,1.37
2019-06-01T16:54:45.138Z,0.97
2019-06-01T16:57:16.362Z,1.20
2019-06-01T16:59:46.922Z,1.07
2019-06-01T17:02:17.974Z,1.20
2019-06-01T17:04:48.737Z,1.30
2019-06-01T17:07:19.559Z,0.87
2019-06-01T17:09:50.852Z,1.00
2019-06-01T17:12:21.141Z,0.90
2019-06-01T17:14:52.043Z,1.20
2019-06-01T17:17:22.615Z,1.03
2019-06-01T17:19:52.533Z,0.70
2019-06-01T17:22:23.685Z,0.80
2019-06-01T17:24:54.841Z,1.47
2019-06-01T17:27:25.566Z,1.80
2019-06-01T17:29:56.328Z,1.00
2019-06-01T17:32:27.663Z,1.13
2019-06-01T17:34:58.818Z,1.03
2019-06-01T17:37:30.376Z,1.23
2019-06-01T17:40:02.343Z,1.10
2019-06-01T17:42:33.908Z,0.97
2019-06-01T17:45:06.387Z,1.27
2019-06-01T17:47:40.869Z,1.10
2019-06-01T17:50:11.936Z,0.90
2019-06-01T17:52:42.327Z,1.00
2019-06-01T17:55:32.171Z,0.73
2019-06-01T17:58:03.528Z,0.77
2019-06-01T18:00:35.026Z,1.07
2019-06-01T18:03:07.962Z,1.20
2019-06-01T18:05:39.626Z,1.10
2019-06-01T18:08:12.711Z,1.43
2019-06-01T18:10:54.151Z,0.77
2019-06-01T18:13:18.604Z,0.77
2019-06-01T18:15:50.291Z,0.83
2019-06-01T18:18:22.540Z,1.10
2019-06-01T18:20:53.752Z,1.00
2019-06-01T18:23:24.945Z,0.80
2019-06-01T18:25:56.405Z,1.23
2019-06-01T18:28:27.750Z,1.20
2019-06-01T18:30:58.895Z,1.37
2019-06-01T18:33:28.947Z,1.00
2019-06-01T18:35:59.759Z,1.70
2019-06-01T18:38:30.501Z,1.63
2019-06-01T18:41:12.864Z,1.80
2019-06-01T18:43:33.825Z,1.70
2019-06-01T18:46:05.728Z,1.00
2019-06-01T18:48:36.053Z,1.37
2019-06-01T18:51:08.155Z,1.30
2019-06-01T18:53:39.039Z,1.73
2019-06-01T18:56:10.159Z,1.37
2019-06-01T18:58:41.376Z,1.30
2019-06-01T19:01:12.701Z,1.10
2019-06-01T19:03:43.840Z,1.70
2019-06-01T19:06:15.938Z,1.10
2019-06-01T19:08:47.351Z,1.10
2019-06-01T19:11:33.766Z,1.77
2019-06-01T19:13:50.680Z,1.53
2019-06-01T19:16:22.025Z,1.77
2019-06-01T19:18:53.624Z,1.30
2019-06-01T19:21:25.914Z,1.47
2019-06-01T19:23:56.142Z,1.90
2019-06-01T19:26:27.195Z,1.60
2019-06-01T19:28:58.602Z,1.07
2019-06-01T19:31:30.312Z,1.50
2019-06-01T19:34:01.394Z,1.67
2019-06-01T19:36:34.280Z,1.67
2019-06-01T19:39:09.229Z,1.30
2019-06-01T19:41:45.197Z,1.30
2019-06-01T19:44:15.683Z,1.77
2019-06-01T19:46:46.606Z,1.30
2019-06-01T19:49:19.100Z,1.73
2019-06-01T19:51:51.421Z,1.50
2019-06-01T19:54:22.406Z,1.43
2019-06-01T19:56:53.461Z,1.03
2019-06-01T19:59:24.456Z,1.60
2019-06-01T20:01:57.854Z,1.60
2019-06-01T20:04:29.402Z,1.17
2019-06-01T20:07:00.370Z,1.90
2019-06-01T20:09:32.126Z,1.73
2019-06-01T20:12:10.520Z,1.50
2019-06-01T20:14:36.067Z,1.50
2019-06-01T20:17:08.031Z,1.70
2019-06-01T20:19:40.406Z,1.70
2019-06-01T20:22:11.389Z,1.40
2019-06-01T20:24:42.902Z,1.83
2019-06-01T20:27:13.810Z,1.90
2019-06-01T20:29:44.737Z,1.50
2019-06-01T20:32:15.959Z,1.90
2019-06-01T20:34:46.758Z,2.03
2019-06-01T20:37:18.076Z,1.43
2019-06-01T20:39:49.194Z,2.63
2019-06-01T20:42:29.728Z,1.40
2019-06-01T20:44:53.485Z,1.80
2019-06-01T20:47:24.050Z,1.77
2019-06-01T20:49:55.423Z,1.73
2019-06-01T20:52:26.761Z,1.67
2019-06-01T20:54:58.314Z,2.00
2019-06-01T20:57:29.474Z,2.63
2019-06-01T21:00:00.425Z,2.13
2019-06-01T21:02:32.097Z,2.20
2019-06-01T21:05:02.707Z,1.80
2019-06-01T21:07:33.006Z,1.73
2019-06-01T21:10:05.212Z,1.50
2019-06-01T21:12:44.743Z,2.30
2019-06-01T21:15:09.554Z,3.87
2019-06-01T21:17:40.708Z,1.83
2019-06-01T21:20:11.032Z,1.60
2019-06-01T21:22:42.367Z,2.10
2019-06-01T21:25:14.737Z,1.87
2019-06-01T21:27:46.320Z,2.07
2019-06-01T21:30:20.491Z,1.90
2019-06-01T21:32:51.084Z,1.90
2019-06-01T21:35:21.458Z,2.17
2019-06-01T21:37:52.318Z,2.50
2019-06-01T21:40:23.617Z,2.20
2019-06-01T21:43:06.827Z,1.97
2019-06-01T21:45:27.432Z,1.67
2019-06-01T21:47:57.955Z,3.53
2019-06-01T21:50:29.125Z,1.80
2019-06-01T21:53:00.473Z,1.70
2019-06-01T21:55:31.213Z,1.80
2019-06-01T21:58:02.969Z,1.90
2019-06-01T22:00:39.303Z,1.50
2019-06-01T22:03:10.800Z,1.50
2019-06-01T22:05:41.952Z,1.80
2019-06-01T22:08:13.344Z,1.93
2019-06-01T22:10:44.424Z,1.60
2019-06-01T22:13:18.643Z,2.33
2019-06-01T22:15:48.379Z,2.37
2019-06-01T22:18:19.595Z,2.50
2019-06-01T22:20:51.061Z,1.93
2019-06-01T22:23:21.971Z,3.23
2019-06-01T22:25:53.393Z,2.67
2019-06-01T22:28:26.276Z,3.30
2019-06-01T22:30:57.384Z,2.17
2019-06-01T22:33:28.740Z,1.67
2019-06-01T22:36:00.209Z,2.33
2019-06-01T22:38:30.769Z,2.00
2019-06-01T22:41:02.122Z,2.70
2019-06-01T22:43:45.765Z,2.40
2019-06-01T22:46:05.418Z,2.43
2019-06-01T22:48:36.798Z,2.77
2019-06-01T22:51:06.977Z,2.53
2019-06-01T22:53:38.480Z,1.80
2019-06-01T22:56:10.652Z,2.00
2019-06-01T22:58:41.809Z,2.50
2019-06-01T23:01:12.528Z,1.97
2019-06-01T23:03:42.858Z,2.07
2019-06-01T23:06:14.013Z,2.60
2019-06-01T23:08:45.164Z,2.17
2019-06-01T23:11:16.102Z,3.20
2019-06-01T23:13:53.220Z,4.10
2019-06-01T23:16:21.514Z,3.30
2019-06-01T23:18:53.436Z,3.00
2019-06-01T23:21:25.705Z,2.63
2019-06-01T23:23:57.380Z,2.50
2019-06-01T23:26:28.290Z,2.43
2019-06-01T23:29:00.297Z,2.10
2019-06-01T23:31:32.636Z,2.13
2019-06-01T23:34:05.190Z,2.80
2019-06-01T23:36:36.192Z,2.60
2019-06-01T23:39:08.362Z,3.50
2019-06-01T23:41:39.272Z,2.10
2019-06-01T23:44:12.238Z,2.50
2019-06-01T23:46:42.808Z,2.00
2019-06-01T23:49:14.391Z,2.57
2019-06-01T23:51:45.552Z,2.40
2019-06-01T23:54:15.934Z,1.87
2019-06-01T23:56:46.265Z,3.07
2019-06-01T23:59:17.544Z,2.10
